createdAt,value
2022-12-12T00:01:46.122Z,100732.41
2022-12-12T00:04:13.946Z,100733.09
2022-12-12T00:06:40.612Z,100731.03
2022-12-12T00:09:07.224Z,100731.25
2022-12-12T00:11:33.654Z,100731.03
2022-12-12T00:14:00.257Z,100724.00
2022-12-12T00:16:26.787Z,100713.63
2022-12-12T00:18:53.823Z,100730.56
2022-12-12T00:21:23.494Z,100726.72
2022-12-12T00:23:50.805Z,100727.16
2022-12-12T00:26:26.338Z,100728.44
2022-12-12T00:28:53.665Z,100726.03
2022-12-12T00:31:20.361Z,100732.75
2022-12-12T00:33:50.090Z,100735.59
2022-12-12T00:36:22.177Z,100741.50
2022-12-12T00:38:48.986Z,100730.25
2022-12-12T00:41:15.639Z,100734.22
2022-12-12T00:43:42.264Z,100739.69
2022-12-12T00:46:09.376Z,100741.28
2022-12-12T00:48:36.459Z,100749.13
2022-12-12T00:51:09.184Z,100745.63
2022-12-12T00:53:37.323Z,100742.09
2022-12-12T00:56:03.969Z,100748.34
2022-12-12T00:58:31.627Z,100741.75
2022-12-12T01:01:06.240Z,100751.06
2022-12-12T01:03:34.196Z,100753.81
2022-12-12T01:06:00.742Z,100759.25
2022-12-12T01:08:27.781Z,100762.00
2022-12-12T01:10:54.713Z,100763.56
2022-12-12T01:13:21.960Z,100771.75
2022-12-12T01:15:49.175Z,100769.03
2022-12-12T01:18:16.456Z,100773.78
2022-12-12T01:20:43.314Z,100766.63
2022-12-12T01:23:10.044Z,100773.53
2022-12-12T01:25:36.956Z,100765.56
2022-12-12T01:28:03.932Z,100769.69
2022-12-12T01:30:30.656Z,100763.53
2022-12-12T01:32:57.335Z,100774.91
2022-12-12T01:35:24.110Z,100770.72
2022-12-12T01:37:50.919Z,100781.28
2022-12-12T01:40:22.532Z,100780.94
2022-12-12T01:42:49.682Z,100785.97
2022-12-12T01:45:53.836Z,100783.09
2022-12-12T01:48:22.442Z,100785.03
2022-12-12T01:50:49.931Z,100788.56
2022-12-12T01:53:19.433Z,100786.31
2022-12-12T01:55:48.182Z,100789.47
2022-12-12T01:58:15.217Z,100790.38
2022-12-12T02:00:42.386Z,100779.47
2022-12-12T02:03:09.405Z,100786.06
2022-12-12T02:05:46.804Z,100777.88
2022-12-12T02:08:14.684Z,100779.47
2022-12-12T02:10:41.154Z,100788.94
2022-12-12T02:13:11.793Z,100790.06
2022-12-12T02:15:47.971Z,100795.16
2022-12-12T02:18:24.674Z,100784.25
2022-12-12T02:21:04.964Z,100789.72
2022-12-12T02:23:37.258Z,100789.72
2022-12-12T02:26:09.603Z,100792.00
2022-12-12T02:28:51.414Z,100786.22
2022-12-12T02:31:38.368Z,100789.72
2022-12-12T02:34:12.259Z,100789.28
2022-12-12T02:36:47.696Z,100791.19
2022-12-12T02:39:49.338Z,100791.09
2022-12-12T02:42:27.090Z,100787.56
2022-12-12T02:44:53.435Z,100787.56
2022-12-12T02:47:24.372Z,100788.22
2022-12-12T02:50:01.035Z,100797.22
2022-12-12T02:52:27.992Z,100782.03
2022-12-12T02:54:54.803Z,100787.84
2022-12-12T02:57:23.979Z,100786.72
2022-12-12T02:59:56.780Z,100783.31
2022-12-12T03:02:50.519Z,100791.94
2022-12-12T03:06:39.380Z,100785.34
2022-12-12T03:09:28.702Z,100790.13
2022-12-12T03:12:25.197Z,100794.00
2022-12-12T03:15:07.179Z,100788.22
2022-12-12T03:17:41.782Z,100788.56
2022-12-12T03:20:19.774Z,100793.19
2022-12-12T03:22:59.914Z,100792.44
2022-12-12T03:26:01.497Z,100789.69
2022-12-12T03:29:09.130Z,100791.94
2022-12-12T03:31:39.982Z,100790.81
2022-12-12T03:34:14.905Z,100795.16
2022-12-12T03:36:48.877Z,100789.22
2022-12-12T03:39:25.312Z,100790.22
2022-12-12T03:42:02.002Z,100781.47
2022-12-12T03:44:41.258Z,100777.16
2022-12-12T03:47:15.788Z,100782.78
2022-12-12T03:49:59.999Z,100777.34
2022-12-12T03:52:35.920Z,100779.63
2022-12-12T03:55:07.686Z,100787.00
2022-12-12T03:57:49.570Z,100786.66
2022-12-12T04:00:16.626Z,100786.34
2022-12-12T04:03:01.875Z,100802.16
2022-12-12T04:06:06.172Z,100799.88
2022-12-12T04:08:34.428Z,100792.84
2022-12-12T04:11:31.054Z,100791.72
2022-12-12T04:14:15.987Z,100798.06
2022-12-12T04:16:46.238Z,100794.56
2022-12-12T04:19:54.882Z,100789.91
2022-12-12T04:22:43.542Z,100795.34
2022-12-12T04:25:32.673Z,100793.75
2022-12-12T04:28:05.620Z,100799.22
2022-12-12T04:30:34.907Z,100805.81
2022-12-12T04:33:13.058Z,100804.34
2022-12-12T04:35:45.484Z,100813.34
2022-12-12T04:38:23.926Z,100810.28
2022-12-12T04:40:55.011Z,100812.19
2022-12-12T04:43:25.010Z,100810.94
2022-12-12T04:45:59.465Z,100810.94
2022-12-12T04:48:38.558Z,100813.19
2022-12-12T04:51:09.934Z,100805.56
2022-12-12T04:53:43.107Z,100806.09
2022-12-12T04:56:13.600Z,100807.41
2022-12-12T04:58:40.753Z,100812.44
2022-12-12T05:01:22.779Z,100801.38
2022-12-12T05:03:54.326Z,100814.22
2022-12-12T05:06:29.098Z,100814.41
2022-12-12T05:08:57.635Z,100814.97
2022-12-12T05:11:27.224Z,100817.69
2022-12-12T05:13:53.709Z,100825.72
2022-12-12T05:16:27.731Z,100818.53
2022-12-12T05:18:54.643Z,100828.34
2022-12-12T05:21:21.430Z,100837.63
2022-12-12T05:23:47.926Z,100840.69
2022-12-12T05:26:30.765Z,100830.13
2022-12-12T05:29:01.044Z,100833.97
2022-12-12T05:31:30.431Z,100837.50
2022-12-12T05:33:56.894Z,100834.78
2022-12-12T05:36:23.670Z,100836.38
2022-12-12T05:38:50.196Z,100839.91
2022-12-12T05:41:16.735Z,100835.59
2022-12-12T05:43:43.159Z,100850.31
2022-12-12T05:46:09.609Z,100848.06
2022-12-12T05:48:36.085Z,100853.53
2022-12-12T05:51:03.570Z,100853.97
2022-12-12T05:53:30.658Z,100848.19
2022-12-12T05:55:57.133Z,100843.88
2022-12-12T05:58:23.596Z,100842.28
2022-12-12T06:00:51.158Z,100845.47
2022-12-12T06:03:18.151Z,100848.19
2022-12-12T06:05:44.868Z,100850.91
2022-12-12T06:08:11.585Z,100850.59
2022-12-12T06:10:38.134Z,100855.59
2022-12-12T06:13:04.583Z,100862.31
2022-12-12T06:15:31.247Z,100862.78
2022-12-12T06:17:58.603Z,100864.03
2022-12-12T06:20:25.516Z,100857.34
2022-12-12T06:22:53.799Z,100867.44
2022-12-12T06:25:20.881Z,100869.81
2022-12-12T06:27:47.431Z,100864.03
2022-12-12T06:30:14.428Z,100864.03
2022-12-12T06:32:40.895Z,100861.75
2022-12-12T06:35:07.913Z,100846.44
2022-12-12T06:37:35.022Z,100868.63
2022-12-12T06:40:01.528Z,100864.75
2022-12-12T06:42:28.031Z,100870.91
2022-12-12T06:44:54.482Z,100874.22
2022-12-12T06:47:20.909Z,100873.56
2022-12-12T06:49:47.362Z,100883.31
2022-12-12T06:52:13.882Z,100879.34
2022-12-12T06:54:40.390Z,100871.59
2022-12-12T06:57:06.788Z,100877.88
2022-12-12T06:59:33.581Z,100873.06
2022-12-12T07:02:00.981Z,100885.56
2022-12-12T07:04:27.574Z,100882.50
2022-12-12T07:06:54.257Z,100887.63
2022-12-12T07:09:20.871Z,100891.19
2022-12-12T07:11:47.357Z,100890.50
2022-12-12T07:14:13.823Z,100881.19
2022-12-12T07:16:40.556Z,100880.06
2022-12-12T07:19:07.265Z,100871.44
2022-12-12T07:21:33.701Z,100872.53
2022-12-12T07:24:00.182Z,100878.69
2022-12-12T07:26:26.655Z,100882.50
2022-12-12T07:28:53.186Z,100883.00
2022-12-12T07:31:22.744Z,100890.84
2022-12-12T07:33:49.400Z,100887.44
2022-12-12T07:36:16.550Z,100903.00
2022-12-12T07:38:43.422Z,100898.38
2022-12-12T07:41:15.980Z,100895.16
2022-12-12T07:43:44.925Z,100903.66
2022-12-12T07:46:15.514Z,100902.84
2022-12-12T07:48:42.783Z,100909.13
2022-12-12T07:51:09.503Z,100916.31
2022-12-12T07:53:36.369Z,100920.50
2022-12-12T07:56:10.236Z,100918.88
2022-12-12T07:58:37.314Z,100918.22
2022-12-12T08:01:21.545Z,100926.56
2022-12-12T08:03:48.956Z,100919.03
2022-12-12T08:06:16.880Z,100923.94
2022-12-12T08:08:44.933Z,100924.28
2022-12-12T08:11:13.955Z,100923.50
2022-12-12T08:13:41.676Z,100925.09
2022-12-12T08:16:14.832Z,100919.16
2022-12-12T08:18:41.444Z,100927.56
2022-12-12T08:21:12.225Z,100921.63
2022-12-12T08:23:39.770Z,100928.28
2022-12-12T08:26:09.103Z,100929.06
2022-12-12T08:28:36.019Z,100934.06
2022-12-12T08:31:02.994Z,100931.00
2022-12-12T08:33:30.506Z,100938.91
2022-12-12T08:35:56.996Z,100933.97
2022-12-12T08:38:23.456Z,100944.06
2022-12-12T08:40:50.199Z,100938.03
2022-12-12T08:43:16.796Z,100944.41
2022-12-12T08:45:43.329Z,100942.00
2022-12-12T08:48:12.126Z,100940.88
2022-12-12T08:50:41.169Z,100938.75
2022-12-12T08:53:07.687Z,100932.63
2022-12-12T08:55:34.194Z,100941.03
2022-12-12T08:58:00.717Z,100942.63
2022-12-12T09:00:27.332Z,100944.34
2022-12-12T09:02:53.971Z,100947.03
2022-12-12T09:05:20.602Z,100944.91
2022-12-12T09:07:47.215Z,100952.56
2022-12-12T09:10:13.830Z,100953.34
2022-12-12T09:12:42.026Z,100954.28
2022-12-12T09:15:09.831Z,100958.75
2022-12-12T09:17:36.582Z,100950.84
2022-12-12T09:20:03.976Z,100957.22
2022-12-12T09:22:30.512Z,100951.09
2022-12-12T09:24:56.990Z,100959.28
2022-12-12T09:27:23.608Z,100963.16
2022-12-12T09:29:50.130Z,100959.44
2022-12-12T09:32:19.958Z,100960.16
2022-12-12T09:34:50.841Z,100955.56
2022-12-12T09:37:17.306Z,100961.16
2022-12-12T09:39:43.763Z,100963.28
2022-12-12T09:42:32.019Z,100971.28
2022-12-12T09:45:07.837Z,100959.94
2022-12-12T09:47:40.671Z,100967.09
2022-12-12T09:50:22.157Z,100963.53
2022-12-12T09:52:49.510Z,100954.91
2022-12-12T09:55:57.894Z,100959.28
2022-12-12T09:58:30.843Z,100955.66
2022-12-12T10:01:15.864Z,100968.38
2022-12-12T10:03:52.954Z,100955.59
2022-12-12T10:06:38.480Z,100962.44
2022-12-12T10:09:29.598Z,100964.72
2022-12-12T10:11:59.286Z,100959.38
2022-12-12T10:14:39.583Z,100963.44
2022-12-12T10:17:13.895Z,100958.13
2022-12-12T10:19:59.510Z,100969.41
2022-12-12T10:22:34.795Z,100970.09
2022-12-12T10:25:04.389Z,100963.25
2022-12-12T10:27:30.984Z,100964.16
2022-12-12T10:30:07.060Z,100966.66
2022-12-12T10:32:54.433Z,100960.53
2022-12-12T10:35:26.810Z,100958.63
2022-12-12T10:38:13.579Z,100962.16
2022-12-12T10:41:00.241Z,100960.81
2022-12-12T10:43:34.497Z,100951.81
2022-12-12T10:46:15.655Z,100947.22
2022-12-12T10:48:42.742Z,100952.00
2022-12-12T10:51:15.338Z,100942.28
2022-12-12T10:53:42.392Z,100938.03
2022-12-12T10:56:20.468Z,100934.66
2022-12-12T10:58:54.104Z,100939.94
2022-12-12T11:04:22.862Z,100948.16
2022-12-12T11:06:52.100Z,100936.84
2022-12-12T11:09:20.218Z,100941.50
2022-12-12T11:12:04.982Z,100940.91
2022-12-12T11:14:47.325Z,100938.91
2022-12-12T11:17:29.296Z,100934.69
2022-12-12T11:19:59.094Z,100932.53
2022-12-12T11:22:26.812Z,100935.13
2022-12-12T11:24:53.930Z,100927.34
2022-12-12T11:27:31.433Z,100934.94
2022-12-12T11:30:04.497Z,100933.75
2022-12-12T11:32:41.789Z,100937.19
2022-12-12T11:35:24.482Z,100925.63
2022-12-12T11:37:58.120Z,100924.78
2022-12-12T11:40:31.071Z,100907.19
2022-12-12T11:43:18.898Z,100913.19
2022-12-12T11:46:08.257Z,100911.25
2022-12-12T11:48:39.778Z,100913.16
2022-12-12T11:51:06.584Z,100908.53
2022-12-12T11:53:36.961Z,100899.84
2022-12-12T11:56:12.568Z,100900.09
2022-12-12T11:58:48.128Z,100903.03
2022-12-12T12:01:43.549Z,100902.38
2022-12-12T12:04:19.390Z,100902.88
2022-12-12T12:07:06.714Z,100906.13
2022-12-12T12:09:44.181Z,100903.34
2022-12-12T12:12:52.928Z,100900.34
2022-12-12T12:15:25.099Z,100896.31
2022-12-12T12:18:05.679Z,100899.16
2022-12-12T12:20:38.484Z,100900.03
2022-12-12T12:23:14.672Z,100894.44
2022-12-12T12:26:01.579Z,100894.22
2022-12-12T12:28:39.282Z,100893.25
2022-12-12T12:31:14.790Z,100893.19
2022-12-12T12:33:59.550Z,100887.44
2022-12-12T12:37:02.255Z,100883.03
2022-12-12T12:39:53.571Z,100884.09
2022-12-12T12:42:26.105Z,100887.22
2022-12-12T12:45:03.493Z,100881.81
2022-12-12T12:48:10.740Z,100886.53
2022-12-12T12:50:43.639Z,100889.22
2022-12-12T12:53:36.851Z,100888.66
2022-12-12T12:56:14.331Z,100881.94
2022-12-12T12:58:46.108Z,100888.94
2022-12-12T13:01:18.261Z,100887.06
2022-12-12T13:03:56.406Z,100887.44
2022-12-12T13:06:54.927Z,100877.16
2022-12-12T13:09:40.278Z,100880.59
2022-12-12T13:12:15.414Z,100872.81
2022-12-12T13:15:14.599Z,100871.22
2022-12-12T13:18:01.640Z,100863.81
2022-12-12T13:20:34.766Z,100875.72
2022-12-12T13:23:23.425Z,100870.19
2022-12-12T13:26:01.601Z,100873.50
2022-12-12T13:28:34.351Z,100869.94
2022-12-12T13:31:27.836Z,100860.16
2022-12-12T13:34:01.290Z,100869.41
2022-12-12T13:36:40.546Z,100860.69
2022-12-12T13:39:21.299Z,100860.47
2022-12-12T13:42:03.000Z,100858.56
2022-12-12T13:44:44.924Z,100862.19
2022-12-12T13:47:23.283Z,100870.19
2022-12-12T13:49:55.550Z,100874.47
2022-12-12T13:52:27.841Z,100873.72
2022-12-12T13:55:13.622Z,100871.00
2022-12-12T13:58:02.190Z,100878.56
2022-12-12T14:00:31.340Z,100875.69
2022-12-12T14:03:03.886Z,100877.50
2022-12-12T14:05:50.978Z,100875.59
2022-12-12T14:08:18.311Z,100874.63
2022-12-12T14:11:02.897Z,100879.53
2022-12-12T14:13:45.183Z,100878.47
2022-12-12T14:16:14.658Z,100888.47
2022-12-12T14:18:54.020Z,100884.13
2022-12-12T14:21:35.634Z,100882.28
2022-12-12T14:24:34.164Z,100878.41
2022-12-12T14:27:04.555Z,100873.13
2022-12-12T14:29:44.832Z,100883.06
2022-12-12T14:32:11.209Z,100882.19
2022-12-12T14:35:20.497Z,100882.03
2022-12-12T14:38:05.101Z,100882.75
2022-12-12T14:40:35.232Z,100892.19
2022-12-12T14:43:30.515Z,100890.53
2022-12-12T14:45:59.911Z,100884.22
2022-12-12T14:48:27.648Z,100887.59
2022-12-12T14:51:04.368Z,100884.06
2022-12-12T14:53:38.613Z,100888.56
2022-12-12T14:56:13.391Z,100892.56
2022-12-12T14:58:46.949Z,100880.84
2022-12-12T15:01:29.184Z,100878.28
2022-12-12T15:03:58.985Z,100893.00
2022-12-12T15:06:34.514Z,100884.44
2022-12-12T15:09:26.123Z,100889.41
2022-12-12T15:11:55.361Z,100890.19
2022-12-12T15:14:27.514Z,100891.06
2022-12-12T15:17:06.908Z,100894.13
2022-12-12T15:19:50.324Z,100900.03
2022-12-12T15:22:27.619Z,100898.16
2022-12-12T15:24:56.648Z,100900.22
2022-12-12T15:27:45.988Z,100897.44
2022-12-12T15:30:23.599Z,100887.47
2022-12-12T15:32:50.590Z,100901.50
2022-12-12T15:35:23.040Z,100911.25
2022-12-12T15:37:59.732Z,100912.28
2022-12-12T15:40:29.909Z,100914.22
2022-12-12T15:42:59.996Z,100923.13
2022-12-12T15:45:32.270Z,100917.75
2022-12-12T15:47:59.624Z,100925.72
2022-12-12T15:50:28.261Z,100920.97
2022-12-12T15:53:01.104Z,100929.25
2022-12-12T15:55:28.159Z,100923.44
2022-12-12T15:57:54.873Z,100921.59
2022-12-12T16:00:34.582Z,100908.81
2022-12-12T16:03:05.728Z,100918.63
2022-12-12T16:05:36.178Z,100919.50
2022-12-12T16:08:32.095Z,100923.81
2022-12-12T16:11:01.729Z,100918.28
2022-12-12T16:13:39.613Z,100934.41
2022-12-12T16:16:35.945Z,100934.91
2022-12-12T16:19:04.223Z,100921.56
2022-12-12T16:21:30.968Z,100925.22
2022-12-12T16:24:12.891Z,100903.53
2022-12-12T16:26:39.335Z,100932.97
2022-12-12T16:29:05.837Z,100926.44
2022-12-12T16:31:32.364Z,100931.06
2022-12-12T16:34:03.472Z,100933.34
2022-12-12T16:36:30.069Z,100931.63
2022-12-12T16:38:56.844Z,100930.38
2022-12-12T16:41:23.383Z,100932.47
2022-12-12T16:43:49.850Z,100930.28
2022-12-12T16:46:23.847Z,100928.53
2022-12-12T16:48:51.328Z,100935.50
2022-12-12T16:51:25.455Z,100932.50
2022-12-12T16:53:51.920Z,100931.59
2022-12-12T16:56:18.338Z,100932.69
2022-12-12T16:58:44.788Z,100941.53
2022-12-12T17:01:11.991Z,100943.00
2022-12-12T17:03:38.516Z,100943.66
2022-12-12T17:06:05.257Z,100946.38
2022-12-12T17:08:31.738Z,100935.47
2022-12-12T17:11:10.688Z,100938.19
2022-12-12T17:13:40.905Z,100941.94
2022-12-12T17:16:07.559Z,100942.91
2022-12-12T17:18:34.006Z,100944.81
2022-12-12T17:21:00.499Z,100944.34
2022-12-12T17:23:30.150Z,100947.59
2022-12-12T17:26:03.050Z,100937.22
2022-12-12T17:28:32.344Z,100940.06
2022-12-12T17:30:58.965Z,100936.91
2022-12-12T17:33:25.814Z,100944.91
2022-12-12T17:36:04.460Z,100932.59
2022-12-12T17:38:31.651Z,100934.06
2022-12-12T17:41:01.822Z,100933.91
2022-12-12T17:43:28.357Z,100933.75
2022-12-12T17:46:03.947Z,100934.94
2022-12-12T17:48:32.519Z,100926.75
2022-12-12T17:51:01.103Z,100931.38
2022-12-12T17:53:32.299Z,100930.91
2022-12-12T17:56:00.989Z,100936.88
2022-12-12T17:58:36.533Z,100940.72
2022-12-12T18:01:19.493Z,100943.94
2022-12-12T18:03:46.941Z,100944.78
2022-12-12T18:06:14.754Z,100950.88
2022-12-12T18:08:41.823Z,100945.41
2022-12-12T18:11:11.328Z,100942.56
2022-12-12T18:13:39.571Z,100944.59
2022-12-12T18:16:07.770Z,100949.91
2022-12-12T18:18:34.649Z,100939.34
2022-12-12T18:21:58.978Z,100941.56
2022-12-12T18:24:16.576Z,100936.94
2022-12-12T18:26:43.207Z,100931.00
2022-12-12T18:29:13.115Z,100927.34
2022-12-12T18:31:39.808Z,100928.97
2022-12-12T18:34:06.510Z,100920.31
2022-12-12T18:36:33.113Z,100912.97
2022-12-12T18:39:03.997Z,100918.88
2022-12-12T18:41:31.712Z,100918.72
2022-12-12T18:43:58.679Z,100924.31
2022-12-12T18:46:27.224Z,100926.72
2022-12-12T18:48:53.773Z,100929.75
2022-12-12T18:51:23.340Z,100933.75
2022-12-12T18:53:51.814Z,100931.72
2022-12-12T18:56:21.099Z,100931.84
2022-12-12T18:58:47.954Z,100926.28
2022-12-12T19:01:17.297Z,100931.88
2022-12-12T19:03:46.054Z,100929.47
2022-12-12T19:06:15.605Z,100926.25
2022-12-12T19:08:42.512Z,100926.94
2022-12-12T19:11:10.425Z,100926.44
2022-12-12T19:13:38.002Z,100930.09
2022-12-12T19:16:11.128Z,100928.53
2022-12-12T19:18:38.709Z,100927.72
2022-12-12T19:21:10.728Z,100928.34
2022-12-12T19:23:37.556Z,100925.63
2022-12-12T19:26:07.726Z,100926.75
2022-12-12T19:28:35.096Z,100932.06
2022-12-12T19:31:11.346Z,100929.66
2022-12-12T19:33:38.515Z,100938.44
2022-12-12T19:36:09.960Z,100928.34
2022-12-12T19:38:36.425Z,100915.72
2022-12-12T19:41:04.942Z,100921.50
2022-12-12T19:43:31.625Z,100932.19
2022-12-12T19:46:11.140Z,100929.78
2022-12-12T19:48:38.462Z,100921.00
2022-12-12T19:51:17.340Z,100925.31
2022-12-12T19:53:52.550Z,100916.38
2022-12-12T19:56:30.597Z,100927.69
2022-12-12T19:58:57.646Z,100929.47
2022-12-12T20:01:28.431Z,100918.75
2022-12-12T20:04:05.435Z,100928.19
2022-12-12T20:06:42.000Z,100923.69
2022-12-12T20:09:09.102Z,100923.06
2022-12-12T20:11:36.869Z,100927.50
2022-12-12T20:14:03.709Z,100926.69
2022-12-12T20:16:30.626Z,100927.94
2022-12-12T20:18:57.965Z,100928.13
2022-12-12T20:24:15.466Z,100924.28
2022-12-12T20:26:42.019Z,100926.50
2022-12-12T20:29:09.022Z,100930.31
2022-12-12T20:31:39.365Z,100930.91
2022-12-12T20:34:05.876Z,100931.09
2022-12-12T20:36:34.428Z,100942.91
2022-12-12T20:39:04.724Z,100932.38
2022-12-12T20:41:34.745Z,100936.53
2022-12-12T20:44:01.369Z,100940.22
2022-12-12T20:46:33.398Z,100936.38
2022-12-12T20:49:01.468Z,100930.81
2022-12-12T20:51:54.689Z,100931.44
2022-12-12T20:54:21.456Z,100936.69
2022-12-12T20:56:51.842Z,100937.97
2022-12-12T20:59:18.276Z,100940.47
2022-12-12T21:01:44.900Z,100944.31
2022-12-12T21:04:11.564Z,100952.91
2022-12-12T21:06:48.102Z,100954.91
2022-12-12T21:09:22.816Z,100964.50
2022-12-12T21:11:52.070Z,100953.63
2022-12-12T21:14:18.542Z,100949.19
2022-12-12T21:16:45.113Z,100948.56
2022-12-12T21:19:14.067Z,100957.31
2022-12-12T21:21:43.061Z,100955.72
2022-12-12T21:24:12.222Z,100959.41
2022-12-12T21:26:38.980Z,100954.78
2022-12-12T21:29:05.843Z,100947.59
2022-12-12T21:31:36.294Z,100954.59
2022-12-12T21:34:04.147Z,100953.31
2022-12-12T21:36:30.958Z,100951.72
2022-12-12T21:38:59.090Z,100957.16
2022-12-12T21:41:26.946Z,100952.03
2022-12-12T21:43:55.082Z,100950.41
2022-12-12T21:46:24.131Z,100953.75
2022-12-12T21:49:11.442Z,100958.50
2022-12-12T21:51:40.035Z,100944.44
2022-12-12T21:54:07.905Z,100957.53
2022-12-12T21:56:34.581Z,100953.53
2022-12-12T21:59:01.103Z,100946.53
2022-12-12T22:01:27.944Z,100931.94
2022-12-12T22:03:54.942Z,100943.50
2022-12-12T22:06:24.523Z,100938.69
2022-12-12T22:08:53.576Z,100942.19
2022-12-12T22:11:40.275Z,100941.34
2022-12-12T22:14:07.572Z,100934.25
2022-12-12T22:16:34.766Z,100938.69
2022-12-12T22:19:06.050Z,100934.44
2022-12-12T22:21:33.276Z,100937.28
2022-12-12T22:23:59.723Z,100938.59
2022-12-12T22:26:35.162Z,100939.56
2022-12-12T22:29:04.963Z,100945.50
2022-12-12T22:31:34.962Z,100944.69
2022-12-12T22:34:04.307Z,100944.50
2022-12-12T22:36:33.118Z,100944.31
2022-12-12T22:39:00.374Z,100943.41
2022-12-12T22:41:28.918Z,100948.00
2022-12-12T22:44:03.598Z,100946.91
2022-12-12T22:46:30.323Z,100944.22
2022-12-12T22:48:59.501Z,100944.69
2022-12-12T22:51:33.300Z,100944.22
2022-12-12T22:54:02.485Z,100941.91
2022-12-12T22:56:30.367Z,100944.94
2022-12-12T22:58:56.937Z,100934.72
2022-12-12T23:01:24.607Z,100942.34
2022-12-12T23:03:52.194Z,100944.19
2022-12-12T23:06:36.945Z,100942.22
2022-12-12T23:09:14.222Z,100938.31
2022-12-12T23:11:40.923Z,100947.94
2022-12-12T23:14:11.171Z,100952.25
2022-12-12T23:16:37.745Z,100950.22
2022-12-12T23:19:05.194Z,100949.13
2022-12-12T23:21:31.908Z,100926.25
2022-12-12T23:23:58.520Z,100931.47
2022-12-12T23:26:29.937Z,100926.50
2022-12-12T23:28:57.639Z,100932.91
2022-12-12T23:31:29.898Z,100929.22
2022-12-12T23:34:01.888Z,100926.81
2022-12-12T23:36:28.725Z,100904.97
2022-12-12T23:38:57.437Z,100923.19
2022-12-12T23:41:24.461Z,100928.06
2022-12-12T23:43:51.326Z,100914.00
2022-12-12T23:46:33.239Z,100919.94
2022-12-12T23:49:02.263Z,100913.91
2022-12-12T23:51:31.083Z,100923.94
2022-12-12T23:53:59.342Z,100918.22
2022-12-12T23:56:26.665Z,100913.91
2022-12-12T23:58:54.586Z,100908.81
